Time;durP1;ratioP1;P1;durP2;ratioP2;P2;SDS_P1;SDS_P2;PMS_P1;PMS_P2;Temp;Humidity;BMP_temperature;BMP_pressure;BME280_temperature;BME280_humidity;BME280_pressure;Samples;Min_cycle;Max_cycle;Signal;HPM_P1;HPM_P2
2024/01/26 00:04:12;;;;;;;6.68;4.00;;;;;;;17.63;57.46;97766.94;10359550;28;20041;-39
2024/01/26 00:09:13;;;;;;;7.23;3.63;;;;;;;17.60;57.31;97770.31;10360504;28;20045;-40
2024/01/26 00:14:14;;;;;;;7.30;3.75;;;;;;;17.62;57.28;97762.72;10359484;28;20736;-39
2024/01/26 00:19:14;;;;;;;5.43;3.70;;;;;;;17.60;57.22;97759.31;10359026;28;20056;-40
2024/01/26 00:24:14;;;;;;;7.27;4.23;;;;;;;17.62;57.29;97757.66;10366980;28;20041;-35
2024/01/26 00:29:15;;;;;;;6.10;3.73;;;;;;;17.61;57.58;97748.34;10366862;28;20712;-40
2024/01/26 00:34:15;;;;;;;9.43;4.73;;;;;;;17.60;57.60;97751.69;10367244;28;20300;-42
2024/01/26 00:39:16;;;;;;;7.23;3.70;;;;;;;17.55;57.40;97750.75;10366971;28;20030;-38
2024/01/26 00:44:17;;;;;;;6.38;3.28;;;;;;;17.59;57.25;97778.69;10365660;28;20025;-37
2024/01/26 00:49:17;;;;;;;5.57;3.73;;;;;;;17.59;57.42;97780.38;10366388;28;20034;-39
2024/01/26 00:54:18;;;;;;;5.47;3.20;;;;;;;17.61;57.12;97774.53;10366772;28;20041;-38
2024/01/26 00:59:20;;;;;;;5.25;3.20;;;;;;;17.59;57.01;97776.16;10365649;28;20042;-41
2024/01/26 01:04:21;;;;;;;5.28;3.25;;;;;;;17.59;57.36;97765.19;10363943;28;20497;-41
2024/01/26 01:09:21;;;;;;;5.77;3.87;;;;;;;17.60;57.26;97774.50;10361589;28;20040;-38
2024/01/26 01:14:21;;;;;;;5.10;3.27;;;;;;;17.58;57.30;97771.91;10363540;28;20056;-38
2024/01/26 01:19:22;;;;;;;7.47;3.20;;;;;;;17.59;57.44;97762.66;10365655;28;20461;-35
2024/01/26 01:24:23;;;;;;;9.52;3.20;;;;;;;17.58;57.39;97766.03;10364912;28;20038;-41
2024/01/26 01:29:23;;;;;;;9.57;3.10;;;;;;;17.58;57.20;97768.56;10365118;28;20406;-40
2024/01/26 01:34:24;;;;;;;9.80;3.90;;;;;;;17.61;57.05;97774.53;10363553;28;20037;-39
2024/01/26 01:39:24;;;;;;;5.72;3.00;;;;;;;17.61;56.87;97771.13;10365292;28;20180;-37
2024/01/26 01:44:25;;;;;;;4.83;2.50;;;;;;;17.58;56.99;97761.78;10363665;28;20038;-39
2024/01/26 01:49:25;;;;;;;5.57;2.87;;;;;;;17.59;56.65;97753.38;10364067;28;20812;-40
2024/01/26 01:54:26;;;;;;;6.60;3.22;;;;;;;17.58;57.28;97763.47;10364320;28;20457;-38
2024/01/26 01:59:29;;;;;;;4.50;3.13;;;;;;;17.59;56.83;97750.00;10363045;28;20030;-37
2024/01/26 02:04:30;;;;;;;4.10;2.90;;;;;;;17.58;56.78;97748.28;10359086;28;20079;-39
2024/01/26 02:09:31;;;;;;;8.63;3.67;;;;;;;17.59;56.74;97760.13;10363578;28;20564;-40
2024/01/26 02:14:31;;;;;;;5.50;2.85;;;;;;;17.59;56.85;97755.06;10362394;28;20034;-40
2024/01/26 02:19:32;;;;;;;5.60;2.97;;;;;;;17.59;56.87;97766.03;10362647;28;20046;-37
2024/01/26 02:24:32;;;;;;;6.15;2.85;;;;;;;17.56;56.93;97752.47;10356931;28;20859;-39
2024/01/26 02:29:33;;;;;;;7.20;2.87;;;;;;;17.57;56.80;97766.84;10362324;28;20034;-38
2024/01/26 02:34:35;;;;;;;5.80;2.90;;;;;;;17.57;56.70;97776.97;10361472;28;20026;-38
2024/01/26 02:39:37;;;;;;;3.17;2.47;;;;;;;17.57;56.93;97776.97;10363111;28;20037;-40
2024/01/26 02:44:37;;;;;;;5.30;2.90;;;;;;;17.58;56.72;97774.44;10360742;28;20124;-39
2024/01/26 02:49:41;;;;;;;5.13;3.40;;;;;;;17.58;56.87;97768.56;10361893;28;20036;-41
2024/01/26 02:54:41;;;;;;;6.85;3.03;;;;;;;17.56;57.11;97760.06;10358072;28;20302;-40
2024/01/26 02:59:41;;;;;;;3.80;2.27;;;;;;;17.57;56.94;97769.38;10361757;28;20033;-39
2024/01/26 03:04:42;;;;;;;4.77;2.83;;;;;;;17.58;56.77;97773.63;10361400;28;20029;-35
2024/01/26 03:09:42;;;;;;;4.60;3.13;;;;;;;17.57;56.78;97771.91;10360885;28;20042;-36
2024/01/26 03:14:42;;;;;;;7.50;2.20;;;;;;;17.57;56.83;97771.91;10361368;28;20049;-41
2024/01/26 03:19:43;;;;;;;6.00;2.87;;;;;;;17.56;56.90;97765.16;10359479;28;20048;-40
2024/01/26 03:24:44;;;;;;;4.70;2.20;;;;;;;17.57;56.78;97767.69;10360490;28;20033;-40
2024/01/26 03:29:46;;;;;;;4.13;3.05;;;;;;;17.56;56.64;97773.56;10361186;28;20054;-37
2024/01/26 03:34:46;;;;;;;3.73;2.50;;;;;;;17.54;56.50;97764.22;10360101;28;20060;-41
2024/01/26 03:39:47;;;;;;;2.97;2.30;;;;;;;17.56;56.66;97772.75;10358608;28;20484;-35
2024/01/26 03:44:47;;;;;;;3.58;2.60;;;;;;;17.54;56.56;97776.88;10359042;28;20469;-39
2024/01/26 03:49:48;;;;;;;3.43;2.23;;;;;;;17.56;56.79;97785.41;10360393;28;20037;-39
2024/01/26 03:54:49;;;;;;;4.13;2.58;;;;;;;17.55;56.50;97784.53;10363324;28;20034;-38
2024/01/26 03:59:49;;;;;;;4.63;2.23;;;;;;;17.55;56.61;97787.06;10368155;28;20048;-36
2024/01/26 04:04:49;;;;;;;6.43;2.50;;;;;;;17.53;56.38;97796.31;10368369;28;20292;-37
2024/01/26 04:09:50;;;;;;;6.70;2.47;;;;;;;17.54;56.51;97782.81;10366794;28;21294;-39
2024/01/26 04:14:50;;;;;;;3.45;2.33;;;;;;;17.55;56.70;97774.41;10367913;28;20126;-40
2024/01/26 04:19:51;;;;;;;3.87;2.47;;;;;;;17.55;56.40;97773.53;10366716;28;20099;-39
2024/01/26 04:24:51;;;;;;;3.90;2.60;;;;;;;17.54;56.52;97777.75;10366788;28;20048;-41
2024/01/26 04:29:51;;;;;;;4.60;2.43;;;;;;;17.52;56.49;97764.22;10367813;28;20303;-39
2024/01/26 04:34:52;;;;;;;3.73;2.50;;;;;;;17.54;56.61;97767.63;10366126;28;20046;-40
2024/01/26 04:39:52;;;;;;;4.77;2.20;;;;;;;17.54;56.27;97761.69;10364418;28;20075;-41
2024/01/26 04:44:54;;;;;;;4.07;2.37;;;;;;;17.54;56.63;97761.69;10366035;28;20034;-38
2024/01/26 04:49:54;;;;;;;3.38;2.30;;;;;;;17.55;55.72;97763.41;10365556;28;20296;-40
2024/01/26 04:54:55;;;;;;;2.13;1.43;;;;;;;17.56;55.93;97760.06;10364612;28;20485;-37
2024/01/26 04:59:55;;;;;;;5.43;2.38;;;;;;;17.58;55.36;97758.41;10366472;28;20644;-40
2024/01/26 05:04:55;;;;;;;4.40;2.47;;;;;;;17.57;55.90;97762.63;10364798;28;20393;-40
2024/01/26 05:09:56;;;;;;;4.93;2.67;;;;;;;17.55;55.88;97760.88;10366045;28;20509;-41
2024/01/26 05:14:57;;;;;;;4.43;1.87;;;;;;;17.58;55.61;97771.91;10366145;28;20087;-41
2024/01/26 05:19:57;;;;;;;3.97;2.35;;;;;;;17.59;55.81;97765.19;10365464;28;20033;-38
2024/01/26 05:24:57;;;;;;;3.97;2.23;;;;;;;17.57;55.71;97764.31;10363435;28;20648;-40
2024/01/26 05:29:58;;;;;;;3.30;2.37;;;;;;;17.58;55.73;97761.78;10364615;28;20053;-38
2024/01/26 05:34:59;;;;;;;5.40;2.05;;;;;;;17.60;55.36;97751.69;10363891;28;20152;-39
2024/01/26 05:40:03;;;;;;;3.00;2.07;;;;;;;17.58;55.42;97748.28;10364175;28;20574;-39
2024/01/26 05:45:05;;;;;;;4.10;2.10;;;;;;;17.59;54.99;97755.91;10364128;28;20121;-37
2024/01/26 05:50:06;;;;;;;4.90;2.10;;;;;;;17.57;55.19;97751.66;10363075;28;20042;-36
2024/01/26 05:55:07;;;;;;;3.67;2.10;;;;;;;17.55;54.91;97761.75;10362659;28;20022;-40
2024/01/26 06:00:09;;;;;;;6.32;1.85;;;;;;;17.63;55.32;97777.06;10363816;28;20468;-38
2024/01/26 06:05:09;;;;;;;5.90;2.20;;;;;;;17.66;55.62;97782.22;10362919;28;20545;-38
2024/01/26 06:10:10;;;;;;;7.80;2.33;;;;;;;17.62;56.41;97790.56;10362475;28;20100;-36
2024/01/26 06:15:10;;;;;;;7.20;2.22;;;;;;;17.58;57.06;97789.66;10361027;28;20065;-39
2024/01/26 06:20:11;;;;;;;6.77;2.50;;;;;;;17.59;56.89;97787.97;10361783;28;20034;-39
2024/01/26 06:25:12;;;;;;;9.07;2.22;;;;;;;17.61;56.27;97784.66;10362060;28;20299;-40
2024/01/26 06:30:13;;;;;;;8.05;2.97;;;;;;;17.59;57.25;97778.69;10362568;28;20072;-38
2024/01/26 06:35:13;;;;;;;7.85;2.30;;;;;;;17.57;57.11;97787.09;10360277;28;20030;-39
2024/01/26 06:40:14;;;;;;;4.05;2.00;;;;;;;17.56;56.64;97772.75;10360783;28;20049;-38
2024/01/26 06:45:15;;;;;;;8.73;2.40;;;;;;;17.54;56.63;97782.81;10362328;28;20030;-37
2024/01/26 06:50:15;;;;;;;5.03;1.95;;;;;;;17.54;55.33;97792.09;10360689;28;20029;-40
2024/01/26 06:55:16;;;;;;;6.07;2.33;;;;;;;17.53;56.45;97780.25;10360626;28;20030;-37
2024/01/26 07:00:16;;;;;;;4.17;2.17;;;;;;;17.51;56.59;97779.38;10362512;28;20026;-38
2024/01/26 07:05:17;;;;;;;5.15;1.83;;;;;;;17.57;55.44;97787.94;10360287;28;20042;-36
2024/01/26 07:10:17;;;;;;;4.63;2.27;;;;;;;17.56;55.91;97777.81;10361105;28;20038;-41
2024/01/26 07:15:18;;;;;;;5.83;2.30;;;;;;;17.57;55.43;97782.88;10361049;28;20045;-41
2024/01/26 07:20:20;;;;;;;8.73;1.70;;;;;;;17.67;53.38;97778.88;10360350;28;20033;-41
2024/01/26 07:25:20;;;;;;;6.63;1.92;;;;;;;17.75;53.15;97787.47;10359918;28;20343;-39
2024/01/26 07:30:21;;;;;;;5.40;2.10;;;;;;;17.79;52.04;97790.09;10365733;28;20038;-39
2024/01/26 07:35:21;;;;;;;2.85;1.60;;;;;;;17.83;52.07;97775.81;10368323;28;20061;-36
2024/01/26 07:40:21;;;;;;;3.77;1.90;;;;;;;17.83;51.52;97780.88;10368082;28;20378;-40
2024/01/26 07:45:22;;;;;;;2.40;1.70;;;;;;;17.83;51.50;97785.94;10369386;28;20022;-36
2024/01/26 07:50:22;;;;;;;5.97;1.47;;;;;;;17.84;52.11;97772.44;10367751;28;20030;-40
2024/01/26 07:55:22;;;;;;;2.42;1.50;;;;;;;17.83;51.90;97766.50;10366990;28;20048;-36
2024/01/26 08:00:26;;;;;;;2.92;1.98;;;;;;;17.85;52.32;97764.00;10367450;28;20087;-37
2024/01/26 08:05:26;;;;;;;3.13;1.40;;;;;;;17.85;51.82;97766.56;10367258;28;20076;-38
2024/01/26 08:10:27;;;;;;;2.23;1.87;;;;;;;17.85;51.95;97753.88;10367849;28;20116;-38
2024/01/26 08:15:27;;;;;;;5.22;2.17;;;;;;;17.77;52.19;97743.63;10367944;28;20045;-38
2024/01/26 08:20:28;;;;;;;5.80;1.40;;;;;;;17.84;52.63;97763.16;10364680;28;20490;-39
2024/01/26 08:25:28;;;;;;;4.57;1.77;;;;;;;17.85;52.13;97769.94;10366855;28;20022;-37
2024/01/26 08:30:28;;;;;;;4.83;1.73;;;;;;;17.88;51.85;97770.00;10367027;28;20036;-38
2024/01/26 08:35:29;;;;;;;3.58;2.13;;;;;;;17.84;51.40;97782.56;10364844;28;20107;-35
2024/01/26 08:40:29;;;;;;;3.70;1.40;;;;;;;17.85;51.20;97776.69;10363822;28;20125;-37
2024/01/26 08:45:29;;;;;;;2.57;1.50;;;;;;;17.84;51.04;97757.25;10366228;28;20048;-35
2024/01/26 08:50:30;;;;;;;3.83;1.63;;;;;;;17.85;50.98;97758.94;10365624;28;20765;-40
2024/01/26 08:55:30;;;;;;;3.50;1.43;;;;;;;17.86;50.70;97750.53;10365603;28;20049;-39
2024/01/26 09:00:31;;;;;;;4.10;1.70;;;;;;;17.87;51.17;97737.03;10366626;28;20109;-39
2024/01/26 09:05:31;;;;;;;5.33;1.70;;;;;;;17.88;51.61;97733.66;10365379;28;20032;-40
2024/01/26 09:10:31;;;;;;;3.27;1.50;;;;;;;17.86;52.02;97731.13;10363919;28;20164;-39
2024/01/26 09:15:32;;;;;;;3.60;1.80;;;;;;;17.88;51.35;97719.31;10356430;28;20034;-36
2024/01/26 09:20:32;;;;;;;4.87;1.63;;;;;;;17.87;51.02;97715.09;10360067;28;20034;-40
2024/01/26 09:25:33;;;;;;;3.47;2.20;;;;;;;17.87;51.24;97711.69;10360579;28;20109;-36
2024/01/26 09:30:33;;;;;;;7.20;1.83;;;;;;;17.89;51.54;97707.50;10354460;28;20057;-42
2024/01/26 09:35:33;;;;;;;3.97;2.20;;;;;;;17.91;51.07;97714.31;10357629;28;20038;-36
2024/01/26 09:40:34;;;;;;;4.13;1.80;;;;;;;17.94;52.03;97731.25;10359857;28;20048;-39
2024/01/26 09:45:35;;;;;;;6.47;2.05;;;;;;;17.81;57.19;97717.50;10351408;28;20025;-38
2024/01/26 09:50:36;;;;;;;8.45;2.47;;;;;;;17.84;53.78;97721.78;10348631;28;20455;-38
2024/01/26 09:55:36;;;;;;;3.22;2.15;;;;;;;17.86;53.22;97725.19;10357235;28;20035;-38
2024/01/26 10:00:36;;;;;;;4.90;1.87;;;;;;;17.87;53.21;97724.34;10361611;28;20448;-38
2024/01/26 10:05:37;;;;;;;4.87;2.17;;;;;;;17.88;52.26;97714.25;10362355;28;20292;-38
2024/01/26 10:10:37;;;;;;;3.45;1.58;;;;;;;17.92;52.34;97735.44;10362415;28;20025;-39
2024/01/26 10:15:38;;;;;;;4.87;1.90;;;;;;;17.91;52.81;97743.88;10363472;28;20034;-41
2024/01/26 10:20:39;;;;;;;3.58;1.42;;;;;;;17.89;53.42;97735.38;10359510;28;20494;-39
2024/01/26 10:25:39;;;;;;;3.40;1.70;;;;;;;17.90;53.95;97737.09;10358466;28;20030;-38
2024/01/26 10:30:43;;;;;;;3.90;1.60;;;;;;;17.87;55.68;97748.03;10362120;28;20041;-39
2024/01/26 10:35:46;;;;;;;3.88;1.45;;;;;;;17.87;55.08;97737.03;10361396;28;20065;-37
2024/01/26 10:40:46;;;;;;;8.68;1.90;;;;;;;17.84;54.71;97747.13;10361214;28;20080;-37
2024/01/26 10:45:48;;;;;;;6.28;1.73;;;;;;;17.83;55.54;97745.41;10356889;28;20036;-38
2024/01/26 10:50:48;;;;;;;4.35;1.70;;;;;;;17.68;58.17;97733.28;10355216;28;20375;-43
2024/01/26 10:55:49;;;;;;;5.77;2.30;;;;;;;17.67;57.80;97718.06;10360557;28;20033;-42
2024/01/26 11:00:51;;;;;;;8.73;2.35;;;;;;;17.66;56.38;97716.38;10361350;28;21004;-36
2024/01/26 11:05:52;;;;;;;5.82;1.70;;;;;;;17.77;55.52;97710.69;10359753;28;20030;-41
2024/01/26 11:10:54;;;;;;;6.35;1.63;;;;;;;17.75;54.64;97712.31;10359876;28;20033;-37
2024/01/26 11:16:05;;;;;;;13.73;1.85;;;;;;;17.76;54.97;97718.25;10360212;28;20045;-38
2024/01/26 11:21:06;;;;;;;6.25;1.98;;;;;;;17.75;54.88;97707.25;10356795;28;20042;-36
2024/01/26 11:26:13;;;;;;;3.13;1.37;;;;;;;17.83;54.42;97709.94;10359815;28;20509;-38
2024/01/26 11:31:14;;;;;;;2.88;1.45;;;;;;;17.88;54.25;97693.13;10360571;28;20621;-39
2024/01/26 11:36:19;;;;;;;5.43;1.40;;;;;;;17.78;58.40;97701.38;10359809;28;20049;-38
2024/01/26 11:41:21;;;;;;;2.55;1.52;;;;;;;17.73;58.30;97703.00;10360382;28;20038;-38
2024/01/26 11:46:23;;;;;;;2.65;1.67;;;;;;;17.67;58.48;97700.34;10360665;28;20026;-36
2024/01/26 11:51:23;;;;;;;3.53;2.15;;;;;;;17.64;58.60;97690.16;10359589;28;20509;-38
2024/01/26 11:56:23;;;;;;;4.32;1.73;;;;;;;17.60;59.16;97696.00;10359192;28;20037;-37
2024/01/26 12:01:24;;;;;;;5.60;1.70;;;;;;;17.62;58.66;97689.28;10360707;28;20025;-41
2024/01/26 12:06:24;;;;;;;3.33;1.42;;;;;;;17.59;58.18;97684.16;10359274;28;20514;-38
2024/01/26 12:11:26;;;;;;;3.37;1.57;;;;;;;17.60;58.44;97686.72;10359247;28;20037;-39
2024/01/26 12:16:29;;;;;;;4.50;1.52;;;;;;;17.59;58.01;97674.03;10364202;28;20042;-40
2024/01/26 12:21:30;;;;;;;2.85;1.90;;;;;;;17.59;58.86;97669.81;10366922;28;20604;-39
2024/01/26 12:26:30;;;;;;;3.63;1.97;;;;;;;17.67;56.60;97672.50;10366639;28;20038;-42
2024/01/26 12:31:32;;;;;;;5.72;2.80;;;;;;;17.72;55.64;97681.00;10367375;28;20034;-39
2024/01/26 12:36:33;;;;;;;6.53;3.30;;;;;;;17.74;55.75;97686.97;10365803;28;20048;-39
2024/01/26 12:41:34;;;;;;;6.35;3.22;;;;;;;17.77;55.42;97700.56;10363899;28;20133;-38
2024/01/26 12:46:34;;;;;;;5.82;3.53;;;;;;;17.77;55.43;97684.50;10366258;28;20033;-40
2024/01/26 12:51:35;;;;;;;8.97;4.37;;;;;;;17.79;54.98;97682.84;10365830;28;20112;-39
2024/01/26 12:56:36;;;;;;;16.88;7.05;;;;;;;17.77;57.65;97685.38;10365377;28;20029;-41
2024/01/26 13:01:37;;;;;;;8.77;4.80;;;;;;;17.82;54.13;97662.66;10366160;28;20490;-38
2024/01/26 13:06:38;;;;;;;6.65;4.70;;;;;;;17.86;53.25;97659.31;10365152;28;20025;-38
2024/01/26 13:11:39;;;;;;;12.57;6.65;;;;;;;17.90;54.75;97666.16;10364255;28;20037;-36
2024/01/26 13:16:40;;;;;;;15.35;6.65;;;;;;;17.86;53.39;97672.00;10364257;28;20108;-38
2024/01/26 13:21:40;;;;;;;14.27;7.03;;;;;;;17.88;53.77;97643.31;10352044;28;20036;-39
2024/01/26 13:26:42;;;;;;;17.30;6.50;;;;;;;17.90;54.34;97661.94;10357190;28;20037;-37
2024/01/26 13:31:43;;;;;;;11.82;6.15;;;;;;;17.93;53.57;97645.94;10351113;28;20041;-34
2024/01/26 13:36:44;;;;;;;12.37;6.53;;;;;;;17.93;54.10;97651.00;10360958;28;20111;-36
2024/01/26 13:41:44;;;;;;;11.50;5.38;;;;;;;17.94;53.75;97660.31;10361470;28;20347;-37
2024/01/26 13:46:45;;;;;;;11.20;5.83;;;;;;;17.97;54.15;97665.41;10355796;28;20096;-38
2024/01/26 13:51:45;;;;;;;19.77;6.70;;;;;;;17.98;53.90;97650.25;10356091;28;20293;-35
2024/01/26 13:56:53;;;;;;;12.52;4.13;;;;;;;17.96;51.72;97653.56;10361045;28;20386;-36
2024/01/26 14:01:54;;;;;;;19.48;4.18;;;;;;;18.01;50.69;97652.81;10363063;28;20041;-37
2024/01/26 14:06:54;;;;;;;12.90;3.10;;;;;;;18.05;49.71;97661.34;10362544;28;20032;-38
2024/01/26 14:11:56;;;;;;;17.20;5.90;;;;;;;18.05;52.98;97666.41;10361870;28;20038;-41
2024/01/26 14:16:57;;;;;;;17.75;5.90;;;;;;;18.10;54.20;97675.81;10363604;28;20041;-40
2024/01/26 14:21:57;;;;;;;8.27;4.18;;;;;;;18.17;54.08;97686.91;10360094;28;20061;-44
2024/01/26 14:26:58;;;;;;;17.43;4.53;;;;;;;18.27;50.09;97686.22;10360503;28;20125;-44
2024/01/26 14:31:58;;;;;;;14.07;4.40;;;;;;;18.19;53.08;97649.75;10360517;28;20033;-44
2024/01/26 14:37:00;;;;;;;13.80;4.73;;;;;;;18.24;55.72;97689.53;10361904;28;20121;-40
2024/01/26 14:42:00;;;;;;;12.25;3.90;;;;;;;18.29;54.13;97692.16;10360754;28;20033;-40
2024/01/26 14:47:01;;;;;;;12.90;2.77;;;;;;;18.20;54.18;97695.41;10362355;28;20045;-39
2024/01/26 14:52:01;;;;;;;11.48;3.03;;;;;;;18.20;55.05;97692.88;10360689;28;20327;-37
2024/01/26 14:57:02;;;;;;;9.67;3.03;;;;;;;18.32;55.25;97707.47;10361250;28;20037;-41
2024/01/26 15:02:03;;;;;;;10.48;3.72;;;;;;;18.35;55.16;97705.81;10361699;28;20040;-37
2024/01/26 15:07:03;;;;;;;7.35;3.20;;;;;;;18.33;55.07;97731.97;10359409;28;20116;-38
2024/01/26 15:12:05;;;;;;;7.40;2.78;;;;;;;18.20;55.54;97727.47;10360201;28;20042;-36
2024/01/26 15:17:06;;;;;;;6.40;3.33;;;;;;;18.19;54.86;97736.78;10360245;28;20040;-38
2024/01/26 15:22:06;;;;;;;8.85;2.17;;;;;;;18.12;49.29;97736.63;10359750;28;20461;-38
2024/01/26 15:27:07;;;;;;;7.78;2.90;;;;;;;18.05;49.36;97752.56;10360829;28;20435;-39
2024/01/26 15:32:08;;;;;;;13.90;2.42;;;;;;;17.99;47.10;97765.13;10360965;28;20034;-37
2024/01/26 15:37:08;;;;;;;5.18;2.10;;;;;;;17.97;46.54;97765.09;10360662;28;20041;-38
2024/01/26 15:42:08;;;;;;;10.13;3.20;;;;;;;17.92;52.00;97775.97;10359910;28;20034;-38
2024/01/26 15:47:09;;;;;;;12.07;2.90;;;;;;;17.92;52.25;97770.91;10361194;28;20038;-36
2024/01/26 15:52:09;;;;;;;3.57;2.10;;;;;;;17.91;54.78;97780.19;10365217;28;20040;-38
2024/01/26 15:57:09;;;;;;;6.30;2.00;;;;;;;17.89;55.67;97778.44;10368175;28;20120;-39
2024/01/26 16:02:10;;;;;;;4.00;1.87;;;;;;;17.88;49.97;97790.25;10368332;28;20030;-37
2024/01/26 16:07:10;;;;;;;8.90;2.30;;;;;;;17.86;53.68;97802.06;10367845;28;20486;-38
2024/01/26 16:12:11;;;;;;;6.40;2.20;;;;;;;17.84;54.58;97818.03;10366095;28;20034;-38
2024/01/26 16:17:13;;;;;;;5.78;3.10;;;;;;;17.84;55.50;97813.81;10368380;28;20042;-39
2024/01/26 16:22:14;;;;;;;6.82;1.85;;;;;;;17.82;50.43;97815.47;10365069;28;20494;-38
2024/01/26 16:27:14;;;;;;;4.00;2.25;;;;;;;17.88;50.70;97822.34;10365018;28;20037;-37
2024/01/26 16:32:15;;;;;;;4.87;1.90;;;;;;;17.89;49.77;97839.22;10366267;28;20042;-38
2024/01/26 16:37:15;;;;;;;4.80;2.08;;;;;;;17.86;51.13;97856.91;10365823;28;20129;-36
2024/01/26 16:42:16;;;;;;;7.20;2.13;;;;;;;17.95;51.61;97857.09;10363993;28;20371;-38
2024/01/26 16:47:16;;;;;;;21.50;2.57;;;;;;;18.01;51.94;97857.22;10367066;28;20128;-38
2024/01/26 16:52:16;;;;;;;6.80;2.20;;;;;;;18.02;52.77;97871.63;10365313;28;20034;-40
2024/01/26 16:57:17;;;;;;;7.20;3.03;;;;;;;18.06;52.43;97880.97;10365602;28;20034;-41
2024/01/26 17:02:19;;;;;;;4.93;1.90;;;;;;;18.05;52.76;97891.94;10364962;28;20486;-41
2024/01/26 17:07:19;;;;;;;8.30;2.85;;;;;;;18.06;52.32;97921.53;10365137;28;20696;-41
2024/01/26 17:12:22;;;;;;;3.17;1.63;;;;;;;18.03;52.84;97931.59;10364926;28;20042;-38
2024/01/26 17:17:22;;;;;;;6.38;2.53;;;;;;;18.06;52.27;97936.72;10365671;28;20038;-39
2024/01/26 17:22:22;;;;;;;4.83;1.80;;;;;;;18.03;52.24;97944.28;10364842;28;20034;-39
2024/01/26 17:27:23;;;;;;;6.00;2.80;;;;;;;18.03;52.35;97954.41;10364708;28;20061;-38
2024/01/26 17:32:23;;;;;;;6.73;2.23;;;;;;;18.03;52.55;97972.16;10363919;28;20053;-40
2024/01/26 17:37:24;;;;;;;6.20;2.00;;;;;;;18.01;54.91;97976.34;10364678;28;20052;-36
2024/01/26 17:42:24;;;;;;;6.47;1.98;;;;;;;18.03;52.37;98000.03;10363025;28;20081;-37
2024/01/26 17:47:24;;;;;;;6.90;1.73;;;;;;;18.02;53.21;98016.06;10361319;28;20046;-39
2024/01/26 17:52:25;;;;;;;6.00;1.70;;;;;;;17.94;53.28;98012.50;10357027;28;20042;-39
2024/01/26 17:57:25;;;;;;;3.60;1.77;;;;;;;18.00;53.87;98033.75;10357008;28;20725;-39
2024/01/26 18:02:26;;;;;;;4.80;2.20;;;;;;;18.00;53.58;98048.13;10360456;28;20038;-38
2024/01/26 18:07:27;;;;;;;15.18;1.67;;;;;;;17.97;53.68;98048.91;10358934;28;20414;-39
2024/01/26 18:12:27;;;;;;;4.88;1.85;;;;;;;17.97;54.04;98058.16;10356697;28;20045;-36
2024/01/26 18:17:28;;;;;;;5.30;1.55;;;;;;;17.97;53.86;98074.25;10360069;28;20038;-36
2024/01/26 18:22:29;;;;;;;3.05;1.77;;;;;;;18.00;53.40;98078.53;10356062;28;20034;-39
2024/01/26 18:27:29;;;;;;;4.78;1.85;;;;;;;17.99;54.25;98081.88;10358360;28;20112;-40
2024/01/26 18:32:29;;;;;;;5.53;1.77;;;;;;;17.98;53.14;98086.09;10359284;28;20042;-41
2024/01/26 18:37:30;;;;;;;3.07;1.60;;;;;;;18.03;52.79;98092.13;10358849;28;20946;-37
2024/01/26 18:42:30;;;;;;;2.57;1.33;;;;;;;18.00;52.56;98086.97;10360505;28;20091;-40
2024/01/26 18:47:31;;;;;;;4.57;1.87;;;;;;;18.06;52.53;98106.53;10362366;28;20518;-40
2024/01/26 18:52:31;;;;;;;5.50;2.50;;;;;;;18.07;52.59;98115.88;10376277;28;20559;-38
2024/01/26 18:57:31;;;;;;;4.33;1.57;;;;;;;18.06;52.30;98127.66;10361136;28;20358;-37
2024/01/26 19:02:32;;;;;;;5.83;1.90;;;;;;;18.06;52.04;98129.34;10361829;28;20705;-39
2024/01/26 19:07:33;;;;;;;5.50;2.17;;;;;;;18.07;52.25;98144.59;10360677;28;20292;-36
2024/01/26 19:12:34;;;;;;;3.78;1.85;;;;;;;18.04;51.60;98130.97;10360746;28;20044;-39
2024/01/26 19:17:34;;;;;;;6.37;2.03;;;;;;;18.06;53.48;98154.69;10361666;28;20676;-43
2024/01/26 19:22:34;;;;;;;5.57;2.17;;;;;;;18.03;53.37;98170.69;10360065;28;20292;-39
2024/01/26 19:27:35;;;;;;;3.73;1.90;;;;;;;18.06;52.44;98175.81;10360290;28;20046;-39
2024/01/26 19:32:35;;;;;;;6.15;2.60;;;;;;;18.03;54.25;98172.34;10360227;28;20041;-39
2024/01/26 19:37:36;;;;;;;6.67;2.40;;;;;;;18.02;54.26;98178.25;10360298;28;20038;-40
2024/01/26 19:42:36;;;;;;;6.00;3.72;;;;;;;18.00;55.22;98195.09;10360153;28;20288;-38
2024/01/26 19:47:37;;;;;;;6.00;2.70;;;;;;;17.98;55.13;98202.66;10361118;28;20037;-38
2024/01/26 19:52:42;;;;;;;8.30;3.47;;;;;;;17.99;54.91;98198.47;10359829;28;20049;-38
2024/01/26 19:57:43;;;;;;;7.68;2.75;;;;;;;17.98;55.80;98199.28;10359795;28;20022;-39
2024/01/26 20:02:43;;;;;;;6.93;3.45;;;;;;;17.99;54.60;98193.38;10360099;28;20042;-37
2024/01/26 20:07:45;;;;;;;5.47;2.83;;;;;;;17.98;55.32;98197.59;10360702;28;20100;-37
2024/01/26 20:12:46;;;;;;;5.57;2.97;;;;;;;17.95;56.61;98211.84;10358834;28;20033;-38
2024/01/26 20:17:46;;;;;;;4.57;2.65;;;;;;;17.96;54.62;98213.56;10360392;28;20041;-34
2024/01/26 20:22:46;;;;;;;5.80;3.03;;;;;;;17.97;54.95;98227.94;10357533;28;20026;-39
2024/01/26 20:27:47;;;;;;;6.97;3.27;;;;;;;18.02;53.09;98217.13;10357120;28;20042;-41
2024/01/26 20:32:47;;;;;;;4.33;2.20;;;;;;;18.05;53.09;98216.31;10353126;28;20037;-38
2024/01/26 20:37:47;;;;;;;6.47;2.30;;;;;;;18.07;53.12;98222.31;10358602;28;20403;-38
2024/01/26 20:42:48;;;;;;;10.27;3.30;;;;;;;18.07;53.04;98227.38;10365800;28;20040;-37
2024/01/26 20:47:49;;;;;;;9.38;3.25;;;;;;;17.95;52.61;98227.06;10365375;28;20045;-39
2024/01/26 20:52:49;;;;;;;9.87;2.90;;;;;;;18.04;53.26;98237.44;10361758;28;20108;-38
2024/01/26 20:57:52;;;;;;;11.80;2.73;;;;;;;18.07;53.13;98232.47;10365527;28;20359;-37
2024/01/26 21:02:52;;;;;;;9.57;2.75;;;;;;;18.07;53.12;98235.00;10365724;28;20032;-40
2024/01/26 21:07:58;;;;;;;9.27;2.90;;;;;;;18.08;52.41;98239.22;10358152;28;20414;-41
2024/01/26 21:12:59;;;;;;;7.78;2.65;;;;;;;18.06;52.58;98245.91;10360673;28;20596;-38
2024/01/26 21:17:59;;;;;;;8.15;2.80;;;;;;;18.07;52.36;98250.19;10359778;28;20045;-39
2024/01/26 21:23:00;;;;;;;6.05;2.95;;;;;;;18.09;52.70;98256.16;10355658;28;20236;-40
2024/01/26 21:28:00;;;;;;;9.05;2.85;;;;;;;18.07;53.06;98256.09;10356265;28;20048;-39
2024/01/26 21:33:01;;;;;;;5.90;2.72;;;;;;;18.05;52.97;98249.28;10359176;28;20033;-39
2024/01/26 21:38:04;;;;;;;6.20;2.60;;;;;;;18.07;52.76;98252.72;10360602;28;20535;-41
2024/01/26 21:43:06;;;;;;;7.60;3.08;;;;;;;18.06;53.11;98251.00;10359793;28;20300;-37
2024/01/26 21:48:09;;;;;;;9.15;3.42;;;;;;;18.06;53.35;98256.06;10356559;28;20034;-40
2024/01/26 21:53:09;;;;;;;6.75;3.65;;;;;;;18.07;53.59;98255.28;10352752;28;20498;-36
2024/01/26 21:58:10;;;;;;;7.10;3.45;;;;;;;18.08;53.30;98259.50;10356415;28;20052;-38
2024/01/26 22:03:10;;;;;;;4.87;2.80;;;;;;;18.07;53.28;98248.50;10356315;28;20195;-39
2024/01/26 22:08:11;;;;;;;8.10;3.33;;;;;;;18.08;53.29;98249.38;10355029;28;20811;-40
2024/01/26 22:13:11;;;;;;;7.07;3.00;;;;;;;18.10;53.21;98255.34;10356087;28;20297;-39
2024/01/26 22:18:11;;;;;;;5.77;2.90;;;;;;;18.09;52.94;98258.69;10356932;28;20025;-39
2024/01/26 22:23:12;;;;;;;4.37;2.30;;;;;;;18.09;52.97;98256.16;10357332;28;20332;-41
2024/01/26 22:28:14;;;;;;;6.37;2.60;;;;;;;18.07;53.20;98252.72;10359759;28;20118;-37
2024/01/26 22:33:15;;;;;;;4.57;2.17;;;;;;;18.05;52.60;98260.28;10361573;28;20403;-41
2024/01/26 22:38:15;;;;;;;4.32;2.45;;;;;;;18.06;52.54;98253.53;10357951;28;20408;-38
2024/01/26 22:43:16;;;;;;;7.63;3.37;;;;;;;18.01;54.60;98250.03;10355243;28;20022;-36
2024/01/26 22:48:17;;;;;;;5.38;2.88;;;;;;;18.04;52.76;98247.56;10358882;28;20033;-42
2024/01/26 22:53:17;;;;;;;5.80;3.00;;;;;;;18.02;54.96;98239.06;10359732;28;20477;-36
2024/01/26 22:58:18;;;;;;;10.47;3.77;;;;;;;18.01;56.00;98245.81;10353996;28;20045;-39
2024/01/26 23:03:18;;;;;;;6.47;4.10;;;;;;;17.98;56.21;98249.97;10359114;28;20034;-41
2024/01/26 23:08:18;;;;;;;6.40;2.57;;;;;;;17.94;56.20;98249.03;10357594;28;20096;-38
2024/01/26 23:13:19;;;;;;;7.50;3.10;;;;;;;17.95;55.61;98263.41;10360390;28;20026;-38
2024/01/26 23:18:19;;;;;;;10.10;2.80;;;;;;;17.95;54.72;98263.41;10360471;28;20041;-41